createdAt,value
2023-02-16T00:00:25.412Z,8.10
2023-02-16T00:05:26.846Z,8.50
2023-02-16T00:10:28.263Z,8.03
2023-02-16T00:15:29.681Z,8.53
2023-02-16T00:20:31.084Z,8.27
2023-02-16T00:25:32.780Z,8.43
2023-02-16T00:30:34.331Z,8.30
2023-02-16T00:35:35.779Z,7.63
2023-02-16T00:40:37.222Z,7.70
2023-02-16T00:45:38.660Z,7.03
2023-02-16T00:50:40.084Z,7.90
2023-02-16T00:55:41.485Z,7.97
2023-02-16T01:00:42.921Z,7.40
2023-02-16T01:05:44.328Z,7.33
2023-02-16T01:10:45.781Z,7.80
2023-02-16T01:15:47.303Z,6.73
2023-02-16T01:20:48.819Z,7.03
2023-02-16T01:25:50.333Z,8.10
2023-02-16T01:30:51.945Z,7.80
2023-02-16T01:35:53.504Z,7.87
2023-02-16T01:40:54.965Z,7.30
2023-02-16T01:45:56.381Z,7.40
2023-02-16T01:50:57.789Z,7.07
2023-02-16T01:55:59.243Z,6.43
2023-02-16T02:01:00.678Z,7.40
2023-02-16T02:06:02.106Z,7.10
2023-02-16T02:11:03.842Z,7.03
2023-02-16T02:16:05.435Z,7.20
2023-02-16T02:21:06.861Z,6.67
2023-02-16T02:26:08.268Z,7.43
2023-02-16T02:31:09.943Z,6.63
2023-02-16T02:36:11.426Z,7.03
2023-02-16T02:41:12.820Z,7.60
2023-02-16T02:46:14.253Z,7.17
2023-02-16T02:51:15.694Z,7.20
2023-02-16T02:56:17.109Z,7.07
2023-02-16T03:01:18.551Z,6.70
2023-02-16T03:06:19.995Z,6.57
2023-02-16T03:11:21.427Z,6.27
2023-02-16T03:16:22.959Z,6.70
2023-02-16T03:21:24.389Z,6.93
2023-02-16T03:26:25.795Z,6.40
2023-02-16T03:31:27.332Z,6.33
2023-02-16T03:36:28.829Z,7.00
2023-02-16T03:41:30.239Z,7.60
2023-02-16T03:46:31.662Z,6.10
2023-02-16T03:51:33.093Z,6.60
2023-02-16T03:56:34.551Z,6.80
2023-02-16T04:01:35.996Z,6.40
2023-02-16T04:06:37.433Z,6.00
2023-02-16T04:11:38.914Z,7.40
2023-02-16T04:16:40.441Z,6.50
2023-02-16T04:21:41.939Z,6.60
2023-02-16T04:26:43.364Z,6.70
2023-02-16T04:31:44.892Z,6.40
2023-02-16T04:36:46.378Z,7.17
2023-02-16T04:41:47.799Z,5.90
2023-02-16T04:46:49.210Z,6.87
2023-02-16T04:51:50.610Z,6.73
2023-02-16T04:56:52.048Z,6.83
2023-02-16T05:01:53.495Z,6.57
2023-02-16T05:06:55.002Z,6.17
2023-02-16T05:11:56.511Z,6.13
2023-02-16T05:16:57.918Z,6.53
2023-02-16T05:21:59.337Z,5.80
2023-02-16T05:27:00.748Z,6.73
2023-02-16T05:32:04.584Z,7.13
2023-02-16T05:37:06.280Z,5.87
2023-02-16T05:42:07.684Z,6.63
2023-02-16T05:47:09.155Z,6.50
2023-02-16T05:52:10.785Z,6.40
2023-02-16T05:57:12.238Z,6.30
2023-02-16T06:02:13.713Z,6.57
2023-02-16T06:07:15.233Z,6.63
2023-02-16T06:12:16.830Z,6.40
2023-02-16T06:17:18.257Z,6.40
2023-02-16T06:22:19.684Z,6.37
2023-02-16T06:27:22.226Z,6.70
2023-02-16T06:32:23.787Z,6.20
2023-02-16T06:37:25.310Z,6.13
2023-02-16T06:42:26.764Z,6.60
2023-02-16T06:47:28.187Z,5.80
2023-02-16T06:52:30.189Z,6.43
2023-02-16T06:57:31.599Z,5.93
2023-02-16T07:02:33.016Z,7.00
2023-02-16T07:07:34.607Z,6.13
2023-02-16T07:12:36.054Z,6.07
2023-02-16T07:17:37.479Z,5.77
2023-02-16T07:22:38.881Z,5.47
2023-02-16T07:27:40.294Z,5.43
2023-02-16T07:32:41.793Z,6.30
2023-02-16T07:37:43.320Z,5.77
2023-02-16T07:42:44.792Z,5.43
2023-02-16T07:47:46.291Z,6.13
2023-02-16T07:52:47.733Z,6.20
2023-02-16T07:57:49.178Z,6.13
2023-02-16T08:02:50.742Z,6.00
2023-02-16T08:07:52.214Z,5.57
2023-02-16T08:12:53.681Z,5.97
2023-02-16T08:17:55.110Z,6.20
2023-02-16T08:22:56.528Z,6.00
2023-02-16T08:27:57.929Z,5.93
2023-02-16T08:32:59.377Z,5.23
2023-02-16T08:38:00.836Z,5.70
2023-02-16T08:43:02.313Z,5.97
2023-02-16T08:48:03.721Z,5.90
2023-02-16T08:53:05.128Z,6.07
2023-02-16T08:58:06.555Z,5.80
2023-02-16T09:03:07.991Z,5.60
2023-02-16T09:08:09.403Z,5.90
2023-02-16T09:13:10.806Z,6.20
2023-02-16T09:18:12.229Z,5.33
2023-02-16T09:23:13.637Z,5.53
2023-02-16T09:28:15.045Z,5.67
2023-02-16T09:33:16.452Z,6.13
2023-02-16T09:38:17.872Z,5.70
2023-02-16T09:43:19.325Z,5.50
2023-02-16T09:48:20.742Z,6.03
2023-02-16T09:53:22.156Z,5.20
2023-02-16T09:58:23.571Z,5.60
2023-02-16T10:03:25.098Z,5.30
2023-02-16T10:08:26.538Z,5.27
2023-02-16T10:13:27.995Z,5.47
2023-02-16T10:18:29.443Z,5.67
2023-02-16T10:23:30.858Z,6.20
2023-02-16T10:28:32.262Z,5.07
2023-02-16T10:33:33.717Z,4.90
2023-02-16T10:38:35.131Z,5.17
2023-02-16T10:43:36.691Z,5.67
2023-02-16T10:48:38.100Z,5.40
2023-02-16T10:53:39.502Z,5.30
2023-02-16T10:58:40.911Z,5.37
2023-02-16T11:03:42.310Z,5.33
2023-02-16T11:08:43.737Z,5.40
2023-02-16T11:13:45.161Z,5.80
2023-02-16T11:18:46.571Z,5.10
2023-02-16T11:23:48.024Z,4.80
2023-02-16T11:28:49.422Z,5.13
2023-02-16T11:33:50.822Z,5.70
2023-02-16T11:38:52.218Z,4.57
2023-02-16T11:43:53.638Z,5.37
2023-02-16T11:48:55.064Z,5.17
2023-02-16T11:53:56.498Z,4.97
2023-02-16T11:58:57.897Z,5.83
2023-02-16T12:03:59.315Z,5.50
2023-02-16T12:09:00.738Z,4.87
2023-02-16T12:14:02.141Z,5.50
2023-02-16T12:19:03.555Z,4.87
2023-02-16T12:24:04.983Z,5.60
2023-02-16T12:29:06.397Z,5.00
2023-02-16T12:34:07.806Z,4.80
2023-02-16T12:39:09.209Z,4.83
2023-02-16T12:44:10.615Z,5.37
2023-02-16T12:49:12.011Z,5.13
2023-02-16T12:54:13.421Z,5.20
2023-02-16T12:59:14.860Z,5.50
2023-02-16T13:04:16.269Z,5.50
2023-02-16T13:09:17.691Z,5.83
2023-02-16T13:14:19.129Z,5.67
2023-02-16T13:19:20.521Z,5.50
2023-02-16T13:24:21.941Z,5.50
2023-02-16T13:29:23.432Z,5.73
2023-02-16T13:34:24.907Z,5.37
2023-02-16T13:39:26.318Z,5.17
2023-02-16T13:44:27.709Z,5.60
2023-02-16T13:49:29.103Z,5.10
2023-02-16T13:54:30.709Z,5.40
2023-02-16T13:59:32.115Z,5.13
2023-02-16T14:04:33.560Z,5.07
2023-02-16T14:09:34.977Z,4.97
2023-02-16T14:14:36.396Z,5.50
2023-02-16T14:19:37.839Z,4.57
2023-02-16T14:24:39.305Z,5.47
2023-02-16T14:29:40.741Z,5.27
2023-02-16T14:34:42.694Z,4.83
2023-02-16T14:40:06.414Z,5.67
2023-02-16T14:45:05.498Z,5.30
2023-02-16T14:50:06.901Z,5.23
2023-02-16T14:55:09.137Z,6.10
2023-02-16T15:00:10.569Z,5.40
2023-02-16T15:05:12.014Z,4.83
2023-02-16T15:10:13.442Z,5.60
2023-02-16T15:15:14.855Z,5.63
2023-02-16T15:20:16.269Z,4.87
2023-02-16T15:25:17.894Z,5.00
2023-02-16T15:30:19.344Z,4.93
2023-02-16T15:35:20.767Z,5.20
2023-02-16T15:40:25.786Z,4.87
2023-02-16T15:45:27.677Z,6.43
2023-02-16T15:50:29.104Z,4.50
2023-02-16T15:55:30.538Z,5.00
2023-02-16T16:00:31.936Z,4.87
2023-02-16T16:05:33.350Z,4.97
2023-02-16T16:10:34.848Z,4.97
2023-02-16T16:15:36.411Z,4.93
2023-02-16T16:20:37.819Z,4.70
2023-02-16T16:25:39.253Z,5.17
2023-02-16T16:30:40.673Z,4.73
2023-02-16T16:35:42.073Z,4.77
2023-02-16T16:40:43.490Z,4.93
2023-02-16T16:45:44.984Z,4.70
2023-02-16T16:50:46.416Z,4.20
2023-02-16T16:55:47.838Z,4.37
2023-02-16T17:00:49.248Z,4.37
2023-02-16T17:05:50.654Z,4.33
2023-02-16T17:10:52.121Z,4.47
2023-02-16T17:15:53.571Z,4.60
2023-02-16T17:20:54.978Z,4.40
2023-02-16T17:25:56.394Z,3.97
2023-02-16T17:30:57.826Z,5.13
2023-02-16T17:35:59.305Z,3.67
2023-02-16T17:41:00.710Z,4.40
2023-02-16T17:46:02.183Z,3.93
2023-02-16T17:51:03.691Z,4.50
2023-02-16T17:56:05.429Z,4.53
2023-02-16T18:01:07.121Z,4.80
2023-02-16T18:06:08.522Z,4.40
2023-02-16T18:11:09.965Z,3.80
2023-02-16T18:16:11.372Z,4.23
2023-02-16T18:21:12.784Z,5.03
2023-02-16T18:26:14.220Z,5.20
2023-02-16T18:31:15.720Z,4.53
2023-02-16T18:36:17.172Z,5.43
2023-02-16T18:41:18.725Z,4.87
2023-02-16T18:46:20.181Z,4.53
2023-02-16T18:51:21.710Z,5.10
2023-02-16T18:56:23.191Z,5.20
2023-02-16T19:01:24.715Z,4.80
2023-02-16T19:06:26.159Z,5.60
2023-02-16T19:11:27.696Z,5.40
2023-02-16T19:16:29.184Z,5.30
2023-02-16T19:21:30.581Z,5.30
2023-02-16T19:26:32.006Z,5.20
2023-02-16T19:31:33.508Z,5.30
2023-02-16T19:36:34.981Z,5.27
2023-02-16T19:41:36.387Z,4.90
2023-02-16T19:46:37.877Z,4.93
2023-02-16T19:51:39.335Z,4.80
2023-02-16T19:56:40.763Z,5.20
2023-02-16T20:01:42.218Z,5.20
2023-02-16T20:06:43.673Z,4.70
2023-02-16T20:11:45.089Z,5.60
2023-02-16T20:16:46.489Z,4.83
2023-02-16T20:21:48.321Z,5.20
2023-02-16T20:26:49.709Z,4.90
2023-02-16T20:31:51.305Z,5.00
2023-02-16T20:36:52.801Z,5.20
2023-02-16T20:41:54.211Z,5.80
2023-02-16T20:46:55.765Z,5.23
2023-02-16T20:51:57.176Z,5.13
2023-02-16T20:56:58.593Z,5.90
2023-02-16T21:02:00.012Z,5.10
2023-02-16T21:07:01.447Z,5.00
2023-02-16T21:12:02.865Z,5.67
2023-02-16T21:17:04.261Z,4.70
2023-02-16T21:22:05.674Z,5.53
2023-02-16T21:27:07.125Z,4.40
2023-02-16T21:32:08.666Z,5.43
2023-02-16T21:37:10.368Z,5.13
2023-02-16T21:42:11.793Z,5.17
2023-02-16T21:47:13.197Z,5.17
2023-02-16T21:52:14.642Z,5.47
2023-02-16T21:57:16.112Z,4.93
2023-02-16T22:02:17.531Z,5.17
2023-02-16T22:07:18.932Z,5.00
2023-02-16T22:12:20.348Z,4.80
2023-02-16T22:17:21.808Z,5.20
2023-02-16T22:22:23.269Z,5.00
2023-02-16T22:27:24.673Z,5.43
2023-02-16T22:32:26.099Z,5.37
2023-02-16T22:37:27.510Z,5.57
2023-02-16T22:42:28.935Z,5.33
2023-02-16T22:47:30.353Z,4.50
2023-02-16T22:52:31.893Z,4.60
2023-02-16T22:57:33.304Z,5.00
2023-02-16T23:02:34.715Z,5.33
2023-02-16T23:07:36.137Z,5.57
2023-02-16T23:12:37.538Z,4.90
2023-02-16T23:17:38.995Z,5.50
2023-02-16T23:22:40.404Z,4.60
2023-02-16T23:27:41.815Z,4.50
2023-02-16T23:32:43.226Z,5.10
2023-02-16T23:37:44.625Z,5.87
2023-02-16T23:42:46.027Z,5.07
2023-02-16T23:47:47.432Z,4.97
2023-02-16T23:52:48.846Z,5.00
2023-02-16T23:57:50.290Z,5.07
